createdAt,value
2022-12-03T00:00:42.624Z,102225.81
2022-12-03T00:02:44.540Z,102223.16
2022-12-03T00:04:46.378Z,102221.13
2022-12-03T00:06:48.338Z,102224.81
2022-12-03T00:08:50.061Z,102228.34
2022-12-03T00:10:53.041Z,102230.81
2022-12-03T00:12:54.725Z,102230.00
2022-12-03T00:15:02.393Z,102222.50
2022-12-03T00:17:04.442Z,102223.47
2022-12-03T00:19:06.205Z,102221.97
2022-12-03T00:21:07.962Z,102212.38
2022-12-03T00:23:09.864Z,102213.25
2022-12-03T00:25:11.713Z,102207.25
2022-12-03T00:27:13.549Z,102208.94
2022-12-03T00:29:15.695Z,102212.41
2022-12-03T00:31:17.832Z,102208.03
2022-12-03T00:33:20.777Z,102208.72
2022-12-03T00:35:22.562Z,102206.75
2022-12-03T00:37:24.362Z,102208.75
2022-12-03T00:39:26.193Z,102206.31
2022-12-03T00:41:28.177Z,102202.75
2022-12-03T00:43:29.956Z,102205.25
2022-12-03T00:45:31.832Z,102201.09
2022-12-03T00:47:34.331Z,102205.34
2022-12-03T00:49:36.181Z,102193.81
2022-12-03T00:51:37.916Z,102204.28
2022-12-03T00:53:39.745Z,102201.81
2022-12-03T00:55:41.646Z,102199.22
2022-12-03T00:57:43.608Z,102188.16
2022-12-03T00:59:45.537Z,102200.19
2022-12-03T01:01:47.529Z,102192.88
2022-12-03T01:03:49.309Z,102200.81
2022-12-03T01:05:51.353Z,102200.69
2022-12-03T01:07:53.340Z,102203.94
2022-12-03T01:09:55.156Z,102199.69
2022-12-03T01:11:56.971Z,102202.72
2022-12-03T01:13:58.867Z,102199.06
2022-12-03T01:16:00.640Z,102196.28
2022-12-03T01:18:02.580Z,102197.47
2022-12-03T01:20:08.574Z,102194.63
2022-12-03T01:22:10.296Z,102189.53
2022-12-03T01:24:12.400Z,102194.16
2022-12-03T01:26:14.166Z,102188.84
2022-12-03T01:28:15.924Z,102194.03
2022-12-03T01:30:17.920Z,102187.13
2022-12-03T01:32:19.954Z,102189.81
2022-12-03T01:34:21.782Z,102184.78
2022-12-03T01:36:23.683Z,102184.78
2022-12-03T01:38:25.464Z,102194.09
2022-12-03T01:40:27.169Z,102190.56
2022-12-03T01:42:35.117Z,102189.44
2022-12-03T01:44:39.603Z,102193.75
2022-12-03T01:46:42.509Z,102188.28
2022-12-03T01:48:45.346Z,102189.88
2022-12-03T01:50:47.351Z,102196.06
2022-12-03T01:52:49.959Z,102190.88
2022-12-03T01:54:56.010Z,102189.94
2022-12-03T01:56:58.980Z,102186.72
2022-12-03T01:59:00.765Z,102189.38
2022-12-03T02:01:10.270Z,102180.03
2022-12-03T02:03:17.268Z,102185.44
2022-12-03T02:05:26.227Z,102184.13
2022-12-03T02:07:33.770Z,102178.81
2022-12-03T02:09:35.712Z,102177.78
2022-12-03T02:11:49.615Z,102187.53
2022-12-03T02:13:53.149Z,102188.34
2022-12-03T02:16:02.432Z,102177.13
2022-12-03T02:18:04.362Z,102189.22
2022-12-03T02:20:08.434Z,102181.44
2022-12-03T02:22:34.782Z,102180.81
2022-12-03T02:25:15.237Z,102178.06
2022-12-03T02:27:17.484Z,102169.63
2022-12-03T02:29:19.304Z,102175.28
2022-12-03T02:31:21.332Z,102171.75
2022-12-03T02:33:23.145Z,102174.28
2022-12-03T02:35:27.817Z,102180.19
2022-12-03T02:37:34.186Z,102179.59
2022-12-03T02:39:38.604Z,102180.91
2022-12-03T02:41:40.516Z,102184.28
2022-12-03T02:43:42.212Z,102178.91
2022-12-03T02:45:46.930Z,102173.78
2022-12-03T02:47:54.349Z,102176.34
2022-12-03T02:49:56.911Z,102176.38
2022-12-03T02:51:58.927Z,102173.72
2022-12-03T02:54:01.258Z,102178.91
2022-12-03T02:56:03.815Z,102173.88
2022-12-03T02:58:05.794Z,102165.03
2022-12-03T03:00:10.578Z,102174.50
2022-12-03T03:02:14.262Z,102176.28
2022-12-03T03:04:16.487Z,102161.47
2022-12-03T03:06:19.991Z,102170.00
2022-12-03T03:08:21.560Z,102172.66
2022-12-03T03:10:23.859Z,102157.78
2022-12-03T03:12:26.097Z,102156.16
2022-12-03T03:14:27.871Z,102171.50
2022-12-03T03:16:29.778Z,102163.16
2022-12-03T03:18:32.855Z,102145.16
2022-12-03T03:20:35.526Z,102145.31
2022-12-03T03:22:40.656Z,102170.25
2022-12-03T03:24:42.664Z,102162.41
2022-12-03T03:26:44.654Z,102163.28
2022-12-03T03:28:49.355Z,102160.69
2022-12-03T03:30:51.440Z,102158.28
2022-12-03T03:32:53.340Z,102156.53
2022-12-03T03:34:56.326Z,102160.81
2022-12-03T03:36:58.497Z,102160.63
2022-12-03T03:39:00.417Z,102159.69
2022-12-03T03:41:05.957Z,102153.09
2022-12-03T03:43:07.881Z,102152.19
2022-12-03T03:45:09.889Z,102160.16
2022-12-03T03:47:12.370Z,102153.28
2022-12-03T03:49:14.298Z,102149.63
2022-12-03T03:51:17.622Z,102138.38
2022-12-03T03:53:20.818Z,102138.03
2022-12-03T03:55:23.049Z,102141.03
2022-12-03T03:57:24.839Z,102152.28
2022-12-03T03:59:26.774Z,102143.66
2022-12-03T04:01:30.085Z,102138.25
2022-12-03T04:03:31.863Z,102141.88
2022-12-03T04:05:33.740Z,102144.72
2022-12-03T04:07:35.538Z,102140.28
2022-12-03T04:09:37.362Z,102136.66
2022-12-03T04:11:39.121Z,102137.69
2022-12-03T04:13:41.012Z,102143.75
2022-12-03T04:15:42.739Z,102137.03
2022-12-03T04:17:44.547Z,102141.22
2022-12-03T04:19:46.528Z,102136.03
2022-12-03T04:21:48.238Z,102131.13
2022-12-03T04:23:50.146Z,102132.19
2022-12-03T04:25:52.139Z,102131.41
2022-12-03T04:27:54.226Z,102136.25
2022-12-03T04:29:56.184Z,102126.03
2022-12-03T04:31:58.109Z,102141.63
2022-12-03T04:33:59.793Z,102127.84
2022-12-03T04:36:01.689Z,102138.34
2022-12-03T04:38:03.651Z,102132.88
2022-12-03T04:40:06.170Z,102127.88
2022-12-03T04:42:08.184Z,102126.72
2022-12-03T04:44:10.023Z,102129.50
2022-12-03T04:46:11.739Z,102127.00
2022-12-03T04:48:13.620Z,102127.06
2022-12-03T04:50:15.677Z,102133.38
2022-12-03T04:52:19.409Z,102123.09
2022-12-03T04:54:21.167Z,102129.50
2022-12-03T04:56:22.995Z,102127.09
2022-12-03T04:58:24.781Z,102113.44
2022-12-03T05:00:26.621Z,102119.34
2022-12-03T05:02:28.625Z,102114.09
2022-12-03T05:04:30.546Z,102120.34
2022-12-03T05:06:32.803Z,102123.78
2022-12-03T05:08:34.735Z,102118.63
2022-12-03T05:10:36.432Z,102109.97
2022-12-03T05:12:38.473Z,102106.38
2022-12-03T05:14:40.277Z,102101.94
2022-12-03T05:16:42.038Z,102092.78
2022-12-03T05:18:44.024Z,102100.50
2022-12-03T05:20:52.975Z,102051.38
2022-12-03T05:22:55.093Z,102097.69
2022-12-03T05:24:57.049Z,102091.44
2022-12-03T05:26:58.937Z,102096.44
2022-12-03T05:29:00.659Z,102093.00
2022-12-03T05:31:02.726Z,102097.28
2022-12-03T05:33:04.698Z,102099.81
2022-12-03T05:35:06.642Z,102105.75
2022-12-03T05:37:08.599Z,102107.22
2022-12-03T05:39:10.587Z,102102.16
2022-12-03T05:41:12.265Z,102098.16
2022-12-03T05:43:14.146Z,102107.78
2022-12-03T05:45:16.051Z,102098.31
2022-12-03T05:47:17.728Z,102102.69
2022-12-03T05:49:19.593Z,102105.25
2022-12-03T05:51:21.381Z,102104.19
2022-12-03T05:53:23.123Z,102111.81
2022-12-03T05:55:25.812Z,102112.69
2022-12-03T05:57:27.625Z,102106.72
2022-12-03T05:59:29.318Z,102096.13
2022-12-03T06:01:31.293Z,102097.00
2022-12-03T06:03:33.187Z,102099.41
2022-12-03T06:05:35.107Z,102103.50
2022-12-03T06:07:37.080Z,102093.03
2022-12-03T06:09:38.882Z,102098.19
2022-12-03T06:11:40.595Z,102096.44
2022-12-03T06:13:42.560Z,102102.22
2022-12-03T06:15:44.411Z,102097.22
2022-12-03T06:17:46.342Z,102097.81
2022-12-03T06:19:48.124Z,102101.47
2022-12-03T06:21:49.881Z,102103.31
2022-12-03T06:23:51.596Z,102101.59
2022-12-03T06:25:53.392Z,102108.53
2022-12-03T06:27:55.278Z,102109.75
2022-12-03T06:29:57.291Z,102104.84
2022-12-03T06:31:59.203Z,102109.69
2022-12-03T06:34:00.957Z,102109.78
2022-12-03T06:36:02.674Z,102113.03
2022-12-03T06:38:04.520Z,102115.03
2022-12-03T06:40:07.134Z,102111.50
2022-12-03T06:42:08.886Z,102117.25
2022-12-03T06:44:10.756Z,102107.88
2022-12-03T06:46:12.613Z,102115.06
2022-12-03T06:48:14.927Z,102112.44
2022-12-03T06:50:16.877Z,102108.81
2022-12-03T06:52:18.726Z,102110.47
2022-12-03T06:54:20.445Z,102111.31
2022-12-03T06:56:22.688Z,102104.66
2022-12-03T06:58:24.749Z,102107.03
2022-12-03T07:00:26.494Z,102110.63
2022-12-03T07:02:28.535Z,102108.19
2022-12-03T07:04:30.455Z,102099.06
2022-12-03T07:06:32.169Z,102114.00
2022-12-03T07:08:34.393Z,102111.56
2022-12-03T07:10:36.176Z,102113.84
2022-12-03T07:12:37.865Z,102114.59
2022-12-03T07:14:40.108Z,102110.34
2022-12-03T07:16:41.829Z,102097.50
2022-12-03T07:18:43.572Z,102108.75
2022-12-03T07:20:45.459Z,102114.59
2022-12-03T07:22:47.362Z,102114.41
2022-12-03T07:24:49.060Z,102114.09
2022-12-03T07:26:50.917Z,102104.59
2022-12-03T07:28:52.783Z,102112.34
2022-12-03T07:30:54.995Z,102114.13
2022-12-03T07:32:56.892Z,102115.03
2022-12-03T07:34:58.793Z,102108.72
2022-12-03T07:37:00.473Z,102112.13
2022-12-03T07:39:02.414Z,102103.53
2022-12-03T07:41:04.298Z,102110.50
2022-12-03T07:43:06.072Z,102101.72
2022-12-03T07:45:08.706Z,102104.00
2022-12-03T07:47:10.602Z,102098.50
2022-12-03T07:49:12.368Z,102102.19
2022-12-03T07:51:15.508Z,102098.84
2022-12-03T07:53:17.541Z,102100.56
2022-12-03T07:55:19.224Z,102097.47
2022-12-03T07:57:21.078Z,102097.41
2022-12-03T07:59:22.962Z,102098.91
2022-12-03T08:01:24.784Z,102086.19
2022-12-03T08:03:26.690Z,102090.00
2022-12-03T08:05:28.872Z,102091.06
2022-12-03T08:07:30.575Z,102091.63
2022-12-03T08:09:32.338Z,102092.25
2022-12-03T08:11:34.065Z,102094.88
2022-12-03T08:13:35.746Z,102091.19
2022-12-03T08:15:39.667Z,102090.22
2022-12-03T08:17:42.769Z,102089.38
2022-12-03T08:19:47.149Z,102083.44
2022-12-03T08:21:49.117Z,102095.66
2022-12-03T08:23:51.293Z,102083.72
2022-12-03T08:25:53.223Z,102082.22
2022-12-03T08:28:11.065Z,102086.34
2022-12-03T08:30:16.668Z,102088.25
2022-12-03T08:32:18.420Z,102092.84
2022-12-03T08:34:26.525Z,102089.88
2022-12-03T08:36:33.837Z,102091.59
2022-12-03T08:38:35.577Z,102092.69
2022-12-03T08:40:41.650Z,102085.66
2022-12-03T08:42:43.530Z,102088.91
2022-12-03T08:44:45.348Z,102082.06
2022-12-03T08:46:53.234Z,102085.66
2022-12-03T08:48:55.362Z,102094.53
2022-12-03T08:51:21.607Z,102086.53
2022-12-03T08:53:26.494Z,102091.91
2022-12-03T08:55:34.207Z,102085.16
2022-12-03T08:57:36.290Z,102093.00
2022-12-03T08:59:40.309Z,102091.13
2022-12-03T09:01:47.324Z,102090.41
2022-12-03T09:03:54.089Z,102074.06
2022-12-03T09:05:55.936Z,102090.38
2022-12-03T09:07:57.779Z,102079.59
2022-12-03T09:09:59.520Z,102078.72
2022-12-03T09:12:01.336Z,102079.69
2022-12-03T09:14:03.515Z,102074.34
2022-12-03T09:16:05.653Z,102083.91
2022-12-03T09:18:07.465Z,102073.53
2022-12-03T09:20:09.740Z,102081.97
2022-12-03T09:22:11.492Z,102075.03
2022-12-03T09:24:13.385Z,102076.81
2022-12-03T09:26:15.220Z,102081.88
2022-12-03T09:28:16.961Z,102075.22
2022-12-03T09:30:18.936Z,102078.69
2022-12-03T09:32:20.763Z,102064.09
2022-12-03T09:34:22.566Z,102072.44
2022-12-03T09:36:24.496Z,102074.50
2022-12-03T09:38:26.837Z,102077.31
2022-12-03T09:40:29.264Z,102073.03
2022-12-03T09:42:31.065Z,102076.94
2022-12-03T09:44:34.634Z,102070.47
2022-12-03T09:46:37.698Z,102070.13
2022-12-03T09:48:40.469Z,102074.69
2022-12-03T09:50:42.814Z,102073.09
2022-12-03T09:52:44.669Z,102074.34
2022-12-03T09:54:47.662Z,102074.38
2022-12-03T09:56:49.692Z,102072.69
2022-12-03T09:58:51.559Z,102075.53
2022-12-03T10:00:53.534Z,102068.94
2022-12-03T10:02:59.279Z,102076.75
2022-12-03T10:05:01.073Z,102074.28
2022-12-03T10:07:02.896Z,102070.19
2022-12-03T10:09:04.827Z,102068.06
2022-12-03T10:11:06.550Z,102068.22
2022-12-03T10:13:13.412Z,102063.69
2022-12-03T10:15:17.996Z,102061.56
2022-12-03T10:17:19.857Z,102054.75
2022-12-03T10:19:33.774Z,102050.88
2022-12-03T10:21:36.426Z,102054.59
2022-12-03T10:23:38.134Z,102055.72
2022-12-03T10:25:51.480Z,102043.06
2022-12-03T10:27:59.860Z,102040.88
2022-12-03T10:30:04.208Z,102040.38
2022-12-03T10:32:08.941Z,102038.56
2022-12-03T10:34:11.180Z,102035.72
2022-12-03T10:36:31.029Z,102034.94
2022-12-03T10:38:32.899Z,102036.34
2022-12-03T10:40:37.072Z,102035.28
2022-12-03T10:42:40.782Z,102032.41
2022-12-03T10:44:42.529Z,102023.16
2022-12-03T10:46:45.497Z,102034.50
2022-12-03T10:49:08.344Z,102030.47
2022-12-03T10:51:20.330Z,102017.66
2022-12-03T10:53:26.327Z,102019.38
2022-12-03T10:55:34.294Z,102016.59
2022-12-03T10:57:36.856Z,102012.25
2022-12-03T10:59:41.672Z,102007.94
2022-12-03T11:01:43.505Z,102012.97
2022-12-03T11:03:46.176Z,102010.75
2022-12-03T11:05:48.831Z,102003.94
2022-12-03T11:07:50.634Z,102013.50
2022-12-03T11:09:53.941Z,102010.75
2022-12-03T11:11:56.192Z,102019.19
2022-12-03T11:14:03.529Z,102016.69
2022-12-03T11:16:07.205Z,102017.47
2022-12-03T11:18:09.021Z,102010.97
2022-12-03T11:20:22.859Z,102012.53
2022-12-03T11:22:39.553Z,102012.03
2022-12-03T11:24:41.279Z,102001.06
2022-12-03T11:26:42.918Z,102002.78
2022-12-03T11:28:47.735Z,102004.25
2022-12-03T11:30:49.452Z,102022.31
2022-12-03T11:33:00.684Z,102012.97
2022-12-03T11:35:02.555Z,102005.06
2022-12-03T11:37:10.008Z,102003.69
2022-12-03T11:39:11.770Z,102008.09
2022-12-03T11:41:20.891Z,101997.91
2022-12-03T11:43:54.296Z,102005.44
2022-12-03T11:46:01.031Z,101993.91
2022-12-03T11:48:13.637Z,101996.03
2022-12-03T11:50:18.243Z,101984.59
2022-12-03T11:52:44.318Z,101988.56
2022-12-03T11:54:52.039Z,101981.91
2022-12-03T11:56:54.671Z,101988.38
2022-12-03T11:59:02.773Z,101988.59
2022-12-03T12:01:06.802Z,101992.66
2022-12-03T12:03:33.352Z,101999.16
2022-12-03T12:05:35.545Z,101993.56
2022-12-03T12:07:37.502Z,101995.28
2022-12-03T12:09:50.896Z,101989.53
2022-12-03T12:11:52.785Z,101988.38
2022-12-03T12:13:56.129Z,101996.69
2022-12-03T12:16:02.804Z,101994.00
2022-12-03T12:18:35.175Z,101999.69
2022-12-03T12:20:37.325Z,101996.09
2022-12-03T12:22:39.142Z,101979.03
2022-12-03T12:24:40.785Z,101998.25
2022-12-03T12:26:51.018Z,101990.69
2022-12-03T12:28:52.735Z,101997.09
2022-12-03T12:30:54.465Z,101990.72
2022-12-03T12:33:23.338Z,101991.88
2022-12-03T12:35:27.367Z,101981.72
2022-12-03T12:37:56.803Z,101980.75
2022-12-03T12:40:06.743Z,101989.50
2022-12-03T12:42:28.197Z,101984.53
2022-12-03T12:44:29.879Z,101984.16
2022-12-03T12:46:48.311Z,101985.50
2022-12-03T12:48:50.420Z,101978.09
2022-12-03T12:51:00.215Z,101975.56
2022-12-03T12:53:11.399Z,101976.44
2022-12-03T12:55:13.130Z,101981.34
2022-12-03T12:57:21.580Z,101972.22
2022-12-03T12:59:23.498Z,101978.88
2022-12-03T13:01:30.655Z,101975.66
2022-12-03T13:03:34.725Z,101974.50
2022-12-03T13:05:42.276Z,101978.06
2022-12-03T13:07:45.069Z,101974.81
2022-12-03T13:09:46.846Z,101977.81
2022-12-03T13:11:58.613Z,101978.56
2022-12-03T13:14:10.578Z,101987.59
2022-12-03T13:16:19.292Z,101991.22
2022-12-03T13:18:27.417Z,101978.84
2022-12-03T13:20:33.364Z,101982.72
2022-12-03T13:22:35.102Z,101985.97
2022-12-03T13:24:43.356Z,101984.94
2022-12-03T13:26:45.238Z,101988.44
2022-12-03T13:28:46.961Z,101977.88
2022-12-03T13:30:48.896Z,101986.28
2022-12-03T13:32:50.782Z,101983.94
2022-12-03T13:34:52.532Z,101980.16
2022-12-03T13:36:58.483Z,101982.63
2022-12-03T13:39:00.929Z,101985.75
2022-12-03T13:41:03.439Z,101983.81
2022-12-03T13:43:15.339Z,101976.50
2022-12-03T13:45:17.214Z,101977.31
2022-12-03T13:47:21.270Z,101976.72
2022-12-03T13:49:24.563Z,101979.31
2022-12-03T13:51:29.854Z,101962.19
2022-12-03T13:53:38.779Z,101973.25
2022-12-03T13:55:45.618Z,101970.88
2022-12-03T13:57:47.407Z,101967.59
2022-12-03T13:59:49.157Z,101965.66
2022-12-03T14:01:51.043Z,101967.09
2022-12-03T14:03:53.010Z,101969.91
2022-12-03T14:05:54.740Z,101972.03
2022-12-03T14:07:56.719Z,101971.72
2022-12-03T14:09:58.703Z,101974.06
2022-12-03T14:12:00.450Z,101971.44
2022-12-03T14:14:02.315Z,101979.56
2022-12-03T14:16:04.259Z,101972.53
2022-12-03T14:18:06.129Z,101974.16
2022-12-03T14:20:08.401Z,101972.06
2022-12-03T14:22:10.336Z,101975.66
2022-12-03T14:24:12.076Z,101971.41
2022-12-03T14:26:14.153Z,101972.38
2022-12-03T14:28:15.905Z,101975.41
2022-12-03T14:30:17.685Z,101929.66
2022-12-03T14:32:19.520Z,101970.63
2022-12-03T14:34:21.706Z,101960.38
2022-12-03T14:36:23.446Z,101979.84
2022-12-03T14:38:25.441Z,101974.97
2022-12-03T14:40:27.335Z,101982.72
2022-12-03T14:42:29.105Z,101978.19
2022-12-03T14:44:30.996Z,101981.69
2022-12-03T14:46:32.882Z,101984.56
2022-12-03T14:48:34.633Z,101981.13
2022-12-03T14:50:36.830Z,101980.22
2022-12-03T14:52:38.589Z,101987.06
2022-12-03T14:54:41.323Z,101990.66
2022-12-03T14:56:43.106Z,101988.91
2022-12-03T14:58:44.954Z,101984.09
2022-12-03T15:00:46.632Z,101984.00
2022-12-03T15:02:48.644Z,101985.19
2022-12-03T15:04:50.607Z,101985.38
2022-12-03T15:06:52.366Z,101987.09
2022-12-03T15:08:54.189Z,101990.88
2022-12-03T15:10:56.327Z,101993.38
2022-12-03T15:12:58.043Z,101992.47
2022-12-03T15:15:00.528Z,101986.16
2022-12-03T15:17:02.318Z,101990.50
2022-12-03T15:19:04.127Z,101991.81
2022-12-03T15:21:07.481Z,101988.38
2022-12-03T15:23:14.036Z,101997.84
2022-12-03T15:25:16.300Z,101994.47
2022-12-03T15:27:18.104Z,101991.97
2022-12-03T15:29:21.019Z,101986.19
2022-12-03T15:31:22.831Z,101989.03
2022-12-03T15:33:24.591Z,101991.38
2022-12-03T15:35:26.368Z,101985.56
2022-12-03T15:37:28.081Z,101988.59
2022-12-03T15:39:29.884Z,101984.94
2022-12-03T15:41:31.841Z,101973.38
2022-12-03T15:43:33.553Z,101974.34
2022-12-03T15:45:36.055Z,101979.97
2022-12-03T15:47:37.816Z,101979.94
2022-12-03T15:49:39.511Z,101989.03
2022-12-03T15:51:41.414Z,101980.09
2022-12-03T15:53:43.200Z,101980.75
2022-12-03T15:55:44.900Z,101988.41
2022-12-03T15:57:46.838Z,101984.16
2022-12-03T15:59:49.199Z,101989.91
2022-12-03T16:01:50.928Z,101982.72
2022-12-03T16:03:52.768Z,101985.00
2022-12-03T16:05:54.785Z,101988.56
2022-12-03T16:07:56.624Z,101992.66
2022-12-03T16:09:58.398Z,101992.25
2022-12-03T16:12:00.192Z,101992.72
2022-12-03T16:14:01.907Z,101989.06
2022-12-03T16:16:03.851Z,101998.34
2022-12-03T16:18:05.874Z,101990.41
2022-12-03T16:20:08.405Z,101985.28
2022-12-03T16:22:10.629Z,101981.31
2022-12-03T16:24:12.397Z,101978.66
2022-12-03T16:26:14.125Z,101976.44
2022-12-03T16:28:16.144Z,101972.34
2022-12-03T16:30:17.999Z,101951.81
2022-12-03T16:32:19.729Z,101972.44
2022-12-03T16:34:21.634Z,101969.75
2022-12-03T16:36:23.587Z,101966.22
2022-12-03T16:38:25.298Z,101963.44
2022-12-03T16:40:27.165Z,101966.72
2022-12-03T16:42:29.152Z,101965.81
2022-12-03T16:44:31.137Z,101975.41
2022-12-03T16:46:32.993Z,101969.28
2022-12-03T16:48:34.776Z,101976.34
2022-12-03T16:50:36.502Z,101972.28
2022-12-03T16:52:38.470Z,101967.13
2022-12-03T16:54:40.237Z,101978.31
2022-12-03T16:56:41.977Z,101968.53
2022-12-03T16:58:44.257Z,101963.19
2022-12-03T17:00:46.025Z,101959.47
2022-12-03T17:02:47.971Z,101964.84
2022-12-03T17:04:49.906Z,101964.84
2022-12-03T17:06:51.739Z,101958.94
2022-12-03T17:08:53.423Z,101947.91
2022-12-03T17:10:55.336Z,101956.44
2022-12-03T17:13:12.450Z,101956.56
2022-12-03T17:15:14.250Z,101967.06
2022-12-03T17:17:16.039Z,101971.56
2022-12-03T17:19:17.941Z,101973.88
2022-12-03T17:21:19.691Z,101964.34
2022-12-03T17:23:21.635Z,101966.94
2022-12-03T17:25:23.615Z,101970.69
2022-12-03T17:27:25.340Z,101972.59
2022-12-03T17:29:27.251Z,101977.56
2022-12-03T17:31:29.155Z,101976.13
2022-12-03T17:33:30.914Z,101972.31
2022-12-03T17:35:32.797Z,101978.69
2022-12-03T17:37:34.560Z,101982.53
2022-12-03T17:39:36.284Z,101978.03
2022-12-03T17:41:38.130Z,101978.94
2022-12-03T17:43:40.196Z,101980.59
2022-12-03T17:45:41.899Z,101978.31
2022-12-03T17:47:43.744Z,101975.28
2022-12-03T17:49:45.549Z,101979.59
2022-12-03T17:51:47.290Z,101976.22
2022-12-03T17:53:49.053Z,101977.00
2022-12-03T17:55:50.857Z,101979.09
2022-12-03T17:57:52.541Z,101974.78
2022-12-03T17:59:54.407Z,101975.69
2022-12-03T18:01:56.315Z,101974.25
2022-12-03T18:03:58.119Z,101972.28
2022-12-03T18:06:00.160Z,101963.81
2022-12-03T18:08:02.009Z,101974.25
2022-12-03T18:10:04.139Z,101974.00
2022-12-03T18:12:06.292Z,101974.56
2022-12-03T18:14:08.032Z,101980.28
2022-12-03T18:16:09.823Z,101981.19
2022-12-03T18:18:11.848Z,101983.53
2022-12-03T18:20:13.825Z,101991.13
2022-12-03T18:22:16.517Z,101989.56
2022-12-03T18:24:18.325Z,101991.31
2022-12-03T18:26:20.316Z,101992.16
2022-12-03T18:28:22.074Z,101987.69
2022-12-03T18:30:24.265Z,101989.28
2022-12-03T18:32:29.488Z,101988.13
2022-12-03T18:34:31.676Z,101988.91
2022-12-03T18:36:36.007Z,101993.81
2022-12-03T18:38:37.984Z,101989.38
2022-12-03T18:40:40.377Z,101989.16
2022-12-03T18:42:42.160Z,101980.94
2022-12-03T18:44:49.452Z,101983.63
2022-12-03T18:46:53.999Z,101978.47
2022-12-03T18:48:56.542Z,101978.91
2022-12-03T18:50:58.223Z,101978.72
2022-12-03T18:52:59.997Z,101966.66
2022-12-03T18:55:01.935Z,101964.78
2022-12-03T18:57:03.828Z,101960.94
2022-12-03T18:59:05.595Z,101965.53
2022-12-03T19:01:07.725Z,101960.41
2022-12-03T19:03:10.289Z,101953.50
2022-12-03T19:05:12.123Z,101958.03
2022-12-03T19:07:14.436Z,101955.38
2022-12-03T19:09:16.575Z,101940.84
2022-12-03T19:11:18.414Z,101947.56
2022-12-03T19:13:20.177Z,101944.16
2022-12-03T19:15:21.869Z,101954.91
2022-12-03T19:17:23.728Z,101961.16
2022-12-03T19:19:25.604Z,101962.88
2022-12-03T19:21:32.166Z,101964.63
2022-12-03T19:23:36.435Z,101947.56
2022-12-03T19:25:38.216Z,101948.88
2022-12-03T19:27:39.963Z,101968.50
2022-12-03T19:29:42.006Z,101979.63
2022-12-03T19:31:43.768Z,101982.47
2022-12-03T19:33:45.641Z,101984.53
2022-12-03T19:35:47.389Z,101981.72
2022-12-03T19:37:50.007Z,101982.63
2022-12-03T19:39:54.967Z,101971.00
2022-12-03T19:41:56.972Z,101968.69
2022-12-03T19:43:59.056Z,101976.97
2022-12-03T19:46:05.218Z,101975.75
2022-12-03T19:48:07.187Z,101981.19
2022-12-03T19:50:09.664Z,101981.47
2022-12-03T19:52:11.403Z,101980.66
2022-12-03T19:54:13.601Z,101985.88
2022-12-03T19:56:18.117Z,101993.75
2022-12-03T19:58:19.879Z,101993.75
2022-12-03T20:00:21.780Z,101992.38
2022-12-03T20:02:23.781Z,102003.25
2022-12-03T20:04:25.568Z,101979.69
2022-12-03T20:06:31.475Z,101993.53
2022-12-03T20:08:33.376Z,101987.38
2022-12-03T20:10:35.724Z,101990.34
2022-12-03T20:12:37.605Z,101984.25
2022-12-03T20:14:39.429Z,101981.19
2022-12-03T20:16:41.606Z,101980.13
2022-12-03T20:18:45.481Z,101981.28
2022-12-03T20:20:47.229Z,101973.69
2022-12-03T20:22:48.972Z,101976.28
2022-12-03T20:24:50.791Z,101975.31
2022-12-03T20:26:52.727Z,101962.00
2022-12-03T20:28:55.145Z,101955.44
2022-12-03T20:30:58.867Z,101963.56
2022-12-03T20:33:00.898Z,101967.28
2022-12-03T20:35:02.613Z,101974.13
2022-12-03T20:37:04.639Z,101982.47
2022-12-03T20:39:07.708Z,101971.88
2022-12-03T20:41:17.550Z,101976.25
2022-12-03T20:43:19.472Z,101976.50
2022-12-03T20:45:21.285Z,101980.38
2022-12-03T20:47:23.153Z,101970.56
2022-12-03T20:49:24.866Z,101978.25
2022-12-03T20:51:29.187Z,101926.56
2022-12-03T20:53:30.971Z,101964.19
2022-12-03T20:55:33.378Z,101971.69
2022-12-03T20:57:35.059Z,101962.66
2022-12-03T20:59:36.897Z,101961.47
2022-12-03T21:01:39.181Z,101966.56
2022-12-03T21:03:41.087Z,101977.50
2022-12-03T21:05:42.984Z,101977.97
2022-12-03T21:07:45.073Z,101981.38
2022-12-03T21:09:46.927Z,101973.78
2022-12-03T21:11:48.734Z,101974.03
2022-12-03T21:13:51.001Z,101971.50
2022-12-03T21:16:06.649Z,101986.50
2022-12-03T21:18:09.921Z,101955.25
2022-12-03T21:20:14.533Z,101969.38
2022-12-03T21:22:18.427Z,101962.06
2022-12-03T21:24:20.251Z,101972.53
2022-12-03T21:26:22.288Z,101972.44
2022-12-03T21:28:24.185Z,101971.13
2022-12-03T21:30:26.026Z,101971.59
2022-12-03T21:32:27.732Z,101967.81
2022-12-03T21:34:35.948Z,101972.41
2022-12-03T21:36:38.284Z,101967.72
2022-12-03T21:38:40.530Z,101960.69
2022-12-03T21:40:42.370Z,101960.16
2022-12-03T21:42:44.203Z,101964.53
2022-12-03T21:44:46.928Z,101961.53
2022-12-03T21:47:09.264Z,101962.56
2022-12-03T21:49:10.480Z,101961.25
2022-12-03T21:51:14.358Z,101955.69
2022-12-03T21:53:16.278Z,101944.50
2022-12-03T21:55:18.253Z,101948.88
2022-12-03T21:57:20.008Z,101957.41
2022-12-03T21:59:21.966Z,101957.94
2022-12-03T22:01:24.693Z,101957.50
2022-12-03T22:03:26.513Z,101952.13
2022-12-03T22:05:28.338Z,101960.25
2022-12-03T22:07:33.430Z,101969.94
2022-12-03T22:09:35.346Z,101966.31
2022-12-03T22:11:37.181Z,101966.72
2022-12-03T22:13:39.609Z,101970.69
2022-12-03T22:15:41.320Z,101966.16
2022-12-03T22:17:43.092Z,101959.41
2022-12-03T22:19:44.840Z,101958.63
2022-12-03T22:21:46.516Z,101960.41
2022-12-03T22:23:48.329Z,101955.50
2022-12-03T22:26:01.079Z,101951.56
2022-12-03T22:28:02.819Z,101951.22
2022-12-03T22:30:06.205Z,101942.69
2022-12-03T22:32:07.984Z,101939.00
2022-12-03T22:34:09.744Z,101931.28
2022-12-03T22:36:19.646Z,101939.25
2022-12-03T22:38:22.557Z,101931.72
2022-12-03T22:40:24.260Z,101936.94
2022-12-03T22:42:26.057Z,101931.72
2022-12-03T22:44:27.982Z,101920.41
2022-12-03T22:46:29.714Z,101927.44
2022-12-03T22:48:34.175Z,101947.34
2022-12-03T22:50:42.461Z,101946.28
2022-12-03T22:52:44.177Z,101952.13
2022-12-03T22:54:46.065Z,101948.03
2022-12-03T22:56:47.904Z,101948.66
2022-12-03T22:58:49.821Z,101944.34
2022-12-03T23:00:52.932Z,101947.56
2022-12-03T23:02:54.953Z,101952.56
2022-12-03T23:04:56.662Z,101939.56
2022-12-03T23:06:58.473Z,101938.03
2022-12-03T23:09:00.303Z,101931.56
2022-12-03T23:11:02.000Z,101920.97
2022-12-03T23:13:05.927Z,101923.88
2022-12-03T23:15:08.580Z,101929.91
2022-12-03T23:17:10.266Z,101915.56
2022-12-03T23:19:12.215Z,101915.31
2022-12-03T23:21:28.903Z,101908.16
2022-12-03T23:23:30.918Z,101901.34
2022-12-03T23:25:32.626Z,101897.31
2022-12-03T23:27:34.479Z,101877.03